Latest Weather Observations for Pound Creek

IDV60801

Issued at 8:42 am EDT Friday 22 October 2021 (issued every 10 minutes, with the page automatically refreshed every 10 minutes)

About weather observations | Map of weather stations | Latest weather observations for VIC | Other Formats
Station Details ID: 085099 Name: POUND CREEK Lat: -38.63 Lon: 145.81 Height: 3.0 m
Data from the previous 72 hours. | See also: Recent months at Pound Creek
Date/Time
EDT
Temp
°C
App
Temp
°C
Dew
Point
°C
Rel
Hum
%
Delta-T
°C
Wind Press
QNH
hPa
Press
MSL
hPa
Rain since
9am
mm
Dir  Spd
km/h
Gust
km/h
Spd
kts
Gust
kts
22/08:30am 16.6 17.3 16.1 97 0.3 WNW 7 11 4 6 1015.1 1015.1 0.0
22/08:00am 15.7 16.8 15.7 100 0.0 W 4 7 2 4 1014.8 1014.8 0.0
22/07:30am 14.0 15.3 14.0 100 0.0 CALM 0 2 0 1 1014.8 1014.8 0.0
22/07:00am 13.4 14.5 13.4 100 0.0 CALM 0 0 0 0 1014.5 1014.5 0.0
22/06:30am 13.6 14.7 13.6 100 0.0 CALM 0 0 0 0 1014.3 1014.3 0.0
22/06:00am 13.9 14.0 13.9 100 0.0 W 6 11 3 6 1014.0 1014.0 0.0
22/05:30am 13.7 14.9 13.7 100 0.0 CALM 0 0 0 0 1013.5 1013.5 0.0
22/05:00am 14.4 15.1 14.4 100 0.0 NNE 4 6 2 3 1013.4 1013.4 0.0
22/04:30am 13.7 14.5 13.7 100 0.0 SE 2 6 1 3 1013.3 1013.3 0.0
22/04:00am 13.2 14.2 13.2 100 0.0 CALM 0 4 0 2 1013.4 1013.4 0.0
22/03:30am 13.0 13.9 13.0 100 0.0 CALM 0 0 0 0 1013.3 1013.3 0.0
22/03:00am 12.7 13.5 12.7 100 0.0 CALM 0 0 0 0 1013.6 1013.6 0.0
22/02:30am 13.2 14.2 13.2 100 0.0 CALM 0 0 0 0 1013.7 1013.7 0.0
22/02:00am 13.5 14.6 13.5 100 0.0 CALM 0 0 0 0 1013.7 1013.7 0.0
22/01:30am 12.9 13.8 12.9 100 0.0 CALM 0 0 0 0 1013.9 1013.9 0.0
22/01:00am 12.8 13.7 12.8 100 0.0 CALM 0 4 0 2 1014.1 1014.1 0.0
22/12:30am 12.7 13.5 12.7 100 0.0 CALM 0 0 0 0 1014.1 1014.1 0.0
22/12:00am 12.9 13.4 12.9 100 0.0 SSE 2 2 1 1 1014.3 1014.3 0.0
 
Date/Time
EDT
Temp
°C
App
Temp
°C
Dew
Point
°C
Rel
Hum
%
Delta-T
°C
Wind Press
QNH
hPa
Press
MSL
hPa
Rain since
9am
mm
Dir  Spd
km/h
Gust
km/h
Spd
kts
Gust
kts
21/11:30pm 13.1 13.7 13.1 100 0.0 E 2 6 1 3 1014.5 1014.5 0.0
21/11:00pm 14.5 14.8 14.5 100 0.0 ENE 6 7 3 4 1014.4 1014.4 0.0
21/10:30pm 15.3 15.7 15.3 100 0.0 E 7 9 4 5 1014.6 1014.6 0.0
21/10:00pm 16.1 16.4 16.1 100 0.0 E 9 13 5 7 1014.6 1014.6 0.0
21/09:30pm 16.3 16.6 16.1 99 0.1 E 9 13 5 7 1014.8 1014.8 0.0
21/09:00pm 16.6 16.2 16.3 98 0.2 E 13 17 7 9 1014.5 1014.5 0.0
21/08:30pm 16.8 16.8 16.2 96 0.4 E 11 15 6 8 1014.3 1014.3 0.0
21/08:00pm 17.1 17.4 16.1 94 0.6 E 9 11 5 6 1014.4 1014.4 0.0
21/07:30pm 17.5 17.9 16.2 92 0.8 E 9 13 5 7 1014.1 1014.1 0.0
21/07:00pm 18.1 18.1 16.3 89 1.1 ESE 11 15 6 8 1013.8 1013.8 0.0
21/06:30pm 18.7 18.5 16.7 88 1.2 E 13 17 7 9 1013.8 1013.8 0.0
21/06:00pm 18.9 18.4 16.9 88 1.2 ESE 15 22 8 12 1013.4 1013.4 0.0
21/05:30pm 19.3 18.9 17.1 87 1.3 ESE 15 22 8 12 1013.4 1013.4 0.0
21/05:00pm 19.8 19.0 17.2 85 1.6 ESE 17 20 9 11 1013.4 1013.4 0.0
21/04:30pm 20.0 19.8 16.8 82 1.9 SE 13 19 7 10 1013.3 1013.3 0.0
21/04:00pm 20.7 20.5 17.5 82 2.0 ESE 15 20 8 11 1013.3 1013.3 0.0
21/03:30pm 21.9 22.4 18.3 80 2.2 E 13 17 7 9 1013.3 1013.3 0.0
21/03:00pm 21.8 22.6 17.2 75 2.8 E 9 13 5 7 1013.6 1013.6 0.0
21/02:30pm 22.3 21.9 14.2 60 4.7 ENE 9 13 5 7 1014.1 1014.1 0.0
21/02:00pm 22.0 21.1 14.9 64 4.2 ENE 13 20 7 11 1014.4 1014.4 0.0
21/01:30pm 20.8 19.8 14.7 68 3.6 ENE 13 17 7 9 1014.6 1014.6 0.0
21/01:00pm 20.2 19.9 15.4 74 2.8 ENE 11 17 6 9 1014.6 1014.6 0.0
21/12:30pm 19.5 18.7 14.1 71 3.1 ENE 11 17 6 9 1015.1 1015.1 0.0
21/12:00pm 18.6 18.1 13.9 74 2.7 ENE 9 15 5 8 1015.3 1015.3 0.0
21/11:30am 17.7 16.5 14.0 79 2.1 ENE 13 19 7 10 1015.5 1015.5 0.0
21/11:00am 17.1 16.2 13.8 81 1.9 ENE 11 17 6 9 1015.8 1015.8 0.0
21/10:30am 16.5 15.2 13.6 83 1.6 ENE 13 19 7 10 1015.9 1015.9 0.0
21/10:00am 15.9 14.7 13.9 88 1.1 ENE 13 19 7 10 1016.0 1016.0 0.0
21/09:30am 15.4 14.5 13.8 90 0.9 ENE 11 17 6 9 1016.2 1016.2 0.0
21/09:00am 14.9 13.6 13.6 92 0.7 ENE 13 17 7 9 1016.2 1016.2 0.0
21/08:30am 14.6 13.2 13.3 92 0.7 ENE 13 19 7 10 1016.1 1016.1 0.0
21/08:00am 14.1 13.1 13.5 96 0.3 E 11 13 6 7 1016.2 1016.2 0.0
21/07:30am 13.6 13.4 13.1 97 0.3 ENE 6 9 3 5 1016.0 1016.0 0.0
21/07:00am 13.2 12.9 12.6 96 0.3 ENE 6 9 3 5 1015.9 1015.9 0.0
21/06:30am 12.6 12.0 12.4 99 0.1 ENE 7 11 4 6 1015.5 1015.5 0.0
21/06:00am 12.7 11.7 12.4 98 0.2 ENE 9 13 5 7 1015.2 1015.2 0.0
21/05:30am 12.7 11.7 12.4 98 0.2 E 9 13 5 7 1015.1 1015.1 0.0
21/05:00am 12.7 11.7 12.2 97 0.3 E 9 15 5 8 1015.0 1015.0 0.0
21/04:30am 13.8 12.2 12.7 93 0.6 NE 13 24 7 13 1015.1 1015.1 0.0
21/04:00am 14.0 11.7 12.9 93 0.6 NE 17 28 9 15 1015.0 1015.0 0.0
21/03:30am 14.1 11.4 13.0 93 0.6 NE 19 28 10 15 1015.1 1015.1 0.0
21/03:00am 14.1 11.2 13.0 93 0.6 NE 20 30 11 16 1015.4 1015.4 0.0
21/02:30am 14.1 11.2 13.0 93 0.6 NE 20 33 11 18 1015.8 1015.8 0.0
21/02:00am 14.3 11.4 13.0 92 0.7 NE 20 30 11 16 1016.1 1016.1 0.0
21/01:30am 14.5 11.6 13.0 91 0.8 NE 20 33 11 18 1016.5 1016.5 0.0
21/01:00am 14.7 11.4 12.9 89 1.0 NE 22 37 12 20 1016.8 1016.8 0.0
21/12:30am 14.7 11.4 12.7 88 1.1 NE 22 39 12 21 1017.2 1017.2 0.0
21/12:00am 14.5 11.6 12.4 87 1.1 NE 19 32 10 17 1017.3 1017.3 0.0
 
Date/Time
EDT
Temp
°C
App
Temp
°C
Dew
Point
°C
Rel
Hum
%
Delta-T
°C
Wind Press
QNH
hPa
Press
MSL
hPa
Rain since
9am
mm
Dir  Spd
km/h
Gust
km/h
Spd
kts
Gust
kts
20/11:30pm 14.4 11.3 12.3 87 1.1 ENE 20 32 11 17 1017.4 1017.4 0.0
20/11:00pm 13.7 11.5 12.1 90 0.9 ENE 15 24 8 13 1017.8 1017.8 0.0
20/10:30pm 13.4 11.5 11.8 90 0.9 E 13 20 7 11 1018.3 1018.3 0.0
20/10:00pm 12.8 11.6 11.5 92 0.7 E 9 15 5 8 1018.7 1018.7 0.0
20/09:30pm 13.0 11.7 11.4 90 0.8 ENE 9 13 5 7 1018.7 1018.7 0.0
20/09:00pm 13.5 10.9 11.9 90 0.9 E 17 28 9 15 1018.5 1018.5 0.0
20/08:30pm 13.6 11.4 12.0 90 0.9 E 15 26 8 14 1018.3 1018.3 0.0
20/08:00pm 14.0 10.9 12.2 89 1.0 E 20 32 11 17 1018.2 1018.2 0.0
20/07:30pm 14.4 10.6 12.3 87 1.1 E 24 33 13 18 1018.0 1018.0 0.0
20/07:00pm 15.2 10.7 12.5 84 1.5 E 28 37 15 20 1017.7 1017.7 0.0
20/06:30pm 16.1 10.6 12.5 79 2.0 E 33 48 18 26 1017.7 1017.7 0.0
20/06:00pm 17.1 12.7 12.8 76 2.4 E 28 41 15 22 1017.6 1017.6 0.0
20/05:30pm 17.2 12.3 12.7 75 2.5 E 30 43 16 23 1017.6 1017.6 0.0
20/05:00pm 18.3 14.4 13.4 73 2.8 E 26 41 14 22 1017.6 1017.6 0.0
20/04:30pm 18.9 15.1 13.7 72 3.0 E 26 39 14 21 1017.9 1017.9 0.0
20/04:00pm 19.1 15.3 13.7 71 3.1 E 26 35 14 19 1018.0 1018.0 0.0
20/03:30pm 19.8 16.1 11.6 59 4.5 ENE 22 37 12 20 1018.5 1018.5 0.0
20/03:00pm 19.4 15.5 13.3 68 3.5 E 26 35 14 19 1019.0 1019.0 0.0
20/02:30pm 19.4 14.6 11.7 61 4.2 ENE 28 43 15 23 1019.3 1019.3 0.0
20/02:00pm 19.7 15.1 11.2 58 4.6 ENE 26 41 14 22 1019.5 1019.5 0.0
20/01:30pm 19.2 14.6 11.0 59 4.5 ENE 26 35 14 19 1019.9 1019.9 0.0
20/01:00pm 18.4 14.0 10.3 59 4.3 ENE 24 35 13 19 1020.4 1020.4 0.0
20/12:30pm 18.6 14.5 10.2 58 4.5 ENE 22 35 12 19 1020.8 1020.8 0.0
20/12:00pm 18.7 15.3 12.5 67 3.4 ENE 22 35 12 19 1021.6 1021.6 0.0
20/11:30am 18.3 14.2 11.6 65 3.7 ENE 24 39 13 21 1021.8 1021.8 0.0
20/11:00am 17.1 13.2 10.9 67 3.3 ENE 22 39 12 21 1022.2 1022.2 0.0
20/10:30am 16.5 12.3 11.0 70 2.9 ENE 24 39 13 21 1022.5 1022.5 0.0
20/10:00am 16.0 11.9 11.4 74 2.5 ENE 24 35 13 19 1022.7 1022.7 0.0
20/09:30am 15.1 11.1 11.7 80 1.8 E 24 35 13 19 1022.8 1022.8 0.0
20/09:00am 14.5 10.4 11.5 82 1.6 E 24 35 13 19 1022.9 1022.9 1.0
20/08:30am 14.1 10.5 12.0 87 1.1 E 22 33 12 18 1023.0 1023.0 1.0
20/08:00am 13.2 9.9 11.6 90 0.8 E 20 30 11 16 1023.5 1023.5 1.0
20/07:30am 12.4 9.2 11.1 92 0.7 E 19 24 10 13 1024.2 1024.2 1.0
20/07:00am 11.5 8.1 10.4 93 0.6 E 19 28 10 15 1024.0 1024.0 1.0
20/06:30am 11.3 7.7 10.4 94 0.5 E 20 28 11 15 1023.5 1023.5 1.0
20/06:00am 11.2 7.6 10.4 95 0.4 E 20 28 11 15 1023.4 1023.4 1.0
20/05:30am 11.2 7.2 10.4 95 0.4 ESE 22 33 12 18 1023.3 1023.3 1.0
20/05:00am 11.0 7.4 10.4 96 0.3 E 20 28 11 15 1023.2 1023.2 1.0
20/04:30am 11.2 7.6 10.6 96 0.3 ESE 20 28 11 15 1023.0 1023.0 1.0
20/04:00am 11.0 7.3 10.2 95 0.4 ESE 20 30 11 16 1023.5 1023.5 1.0
20/03:30am 10.7 7.8 9.8 94 0.5 E 15 19 8 10 1024.0 1024.0 1.0
20/03:00am 10.9 8.5 10.1 95 0.4 E 13 19 7 10 1024.2 1024.2 1.0
20/02:30am 11.2 7.6 10.4 95 0.4 E 20 30 11 16 1024.3 1024.3 1.0
20/02:00am 11.4 8.1 10.8 96 0.3 E 19 26 10 14 1024.4 1024.4 1.0
20/01:30am 11.3 7.4 10.7 96 0.3 E 22 28 12 15 1024.8 1024.8 1.0
20/01:00am 11.2 8.7 11.2 100 0.0 E 15 24 8 13 1025.2 1025.2 1.0
20/12:30am 11.0 8.5 11.0 100 0.0 E 15 22 8 12 1025.3 1025.3 1.0
20/12:00am 11.0 8.5 11.0 100 0.0 ESE 15 17 8 9 1025.8 1025.8 0.8
 
Date/Time
EDT
Temp
°C
App
Temp
°C
Dew
Point
°C
Rel
Hum
%
Delta-T
°C
Wind Press
QNH
hPa
Press
MSL
hPa
Rain since
9am
mm
Dir  Spd
km/h
Gust
km/h
Spd
kts
Gust
kts
19/11:30pm 11.2 9.5 11.2 100 0.0 ESE 11 17 6 9 1026.5 1026.5 0.8
19/11:00pm 11.6 9.6 11.6 100 0.0 ESE 13 20 7 11 1026.3 1026.3 0.6
19/10:30pm 11.6 10.4 11.6 100 0.0 ESE 9 13 5 7 1025.9 1025.9 0.4
19/10:00pm 11.4 8.6 11.2 99 0.1 ESE 17 26 9 14 1025.3 1025.3 0.2
19/09:30pm 11.7 9.3 11.4 98 0.2 ESE 15 20 8 11 1025.4 1025.4 0.2
19/09:00pm 11.8 10.9 11.5 98 0.2 ESE 7 13 4 7 1025.1 1025.1 0.2
19/08:30pm 12.3 9.9 11.4 94 0.5 ESE 15 20 8 11 1025.0 1025.0 0.2
19/08:00pm 12.5 9.6 10.9 90 0.8 ESE 17 24 9 13 1024.7 1024.7 0.0
19/07:30pm 12.5 8.2 10.9 90 0.8 ESE 24 35 13 19 1024.2 1024.2 0.0
19/07:00pm 13.0 8.4 11.1 88 1.0 ESE 26 35 14 19 1023.7 1023.7 0.0
19/06:30pm 13.0 9.9 11.6 91 0.7 E 19 32 10 17 1023.6 1023.6 0.0
19/06:00pm 13.4 9.8 12.0 91 0.7 ESE 22 37 12 20 1023.5 1023.5 0.0
19/05:30pm 13.4 10.6 12.6 95 0.4 ESE 19 28 10 15 1023.5 1023.5 0.0
19/05:00pm 14.4 10.2 11.0 80 1.8 ESE 24 37 13 20 1023.3 1023.3 0.0
19/04:30pm 15.1 10.2 11.3 78 2.0 ESE 28 39 15 21 1022.8 1022.8 0.0
19/04:00pm 14.8 10.7 11.4 80 1.8 ESE 24 37 13 20 1022.4 1022.4 0.0
19/03:30pm 14.3 9.9 11.6 84 1.4 ESE 26 35 14 19 1022.4 1022.4 0.0
19/03:00pm 15.3 11.9 12.4 83 1.6 SE 22 33 12 18 1022.3 1022.3 0.0
19/02:30pm 14.6 11.0 11.7 83 1.6 ESE 22 33 12 18 1022.6 1022.6 0.0
19/02:00pm 15.8 12.7 12.2 79 2.0 SE 20 32 11 17 1022.6 1022.6 0.0
19/01:30pm 14.9 11.1 11.1 78 2.0 SE 22 32 12 17 1022.6 1022.6 0.0
19/01:00pm 15.2 10.9 12.0 81 1.7 SE 26 37 14 20 1022.6 1022.6 0.0
19/12:30pm 14.8 10.4 11.8 82 1.6 SSE 26 39 14 21 1022.6 1022.6 0.0
19/12:00pm 14.9 10.7 11.1 78 2.0 SE 24 37 13 20 1022.8 1022.8 0.0
19/11:30am 14.5 10.5 11.8 84 1.5 SE 24 37 13 20 1022.9 1022.9 0.0
19/11:00am 15.2 11.8 11.4 78 2.0 SE 20 30 11 16 1022.7 1022.7 0.0
19/10:30am 14.8 11.4 10.4 75 2.3 SE 19 35 10 19 1022.5 1022.5 0.0
19/10:00am 14.6 10.8 11.2 80 1.8 SE 22 35 12 19 1022.5 1022.5 0.0
19/09:30am 14.4 11.5 11.0 80 1.8 SE 17 26 9 14 1022.1 1022.1 0.0
19/09:00am 13.1 10.5 10.6 85 1.3 SSE 15 22 8 12 1022.0 1022.0 1.4

Other formats

Comma delimited format used in spreadsheet applications
http://www.bom.gov.au/fwo/IDV60801/IDV60801.94886.axf

JavaScript Object Notation format (JSON) in row-major order
http://www.bom.gov.au/fwo/IDV60801/IDV60801.94886.json

Data quality

Most of these data are generated automatically and are frequently updated. Quality checks on data are not normally performed. It is possible for incorrect values to appear. Refer to information at About Latest Weather Observations and please check the disclaimer before using these data.